createdAt,value
2023-05-10T00:00:53.384Z,100507.19
2023-05-10T00:03:23.656Z,100507.19
2023-05-10T00:05:53.705Z,100506.41
2023-05-10T00:08:23.615Z,100507.19
2023-05-10T00:10:53.646Z,100497.41
2023-05-10T00:13:26.450Z,100500.13
2023-05-10T00:15:59.289Z,100497.75
2023-05-10T00:18:29.175Z,100502.34
2023-05-10T00:20:59.020Z,100499.56
2023-05-10T00:23:28.987Z,100512.47
2023-05-10T00:25:58.914Z,100504.25
2023-05-10T00:28:34.496Z,100510.84
2023-05-10T00:31:04.426Z,100509.19
2023-05-10T00:33:34.516Z,100506.03
2023-05-10T00:36:04.636Z,100504.53
2023-05-10T00:38:34.510Z,100500.56
2023-05-10T00:41:04.679Z,100502.47
2023-05-10T00:43:37.186Z,100512.72
2023-05-10T00:46:07.692Z,100506.97
2023-05-10T00:48:38.390Z,100506.97
2023-05-10T00:51:08.375Z,100500.78
2023-05-10T00:53:39.414Z,100502.78
2023-05-10T00:56:12.020Z,100500.94
2023-05-10T00:58:44.550Z,100497.13
2023-05-10T01:01:15.505Z,100507.34
2023-05-10T01:03:45.753Z,100509.00
2023-05-10T01:06:15.693Z,100513.06
2023-05-10T01:08:45.654Z,100515.06
2023-05-10T01:11:15.761Z,100510.03
2023-05-10T01:13:54.670Z,100521.00
2023-05-10T01:16:24.670Z,100514.19
2023-05-10T01:18:56.470Z,100514.56
2023-05-10T01:21:36.744Z,100511.81
2023-05-10T01:24:38.999Z,100520.81
2023-05-10T01:27:50.125Z,100518.09
2023-05-10T01:30:50.378Z,100517.66
2023-05-10T01:33:27.395Z,100515.34
2023-05-10T01:36:07.982Z,100514.91
2023-05-10T01:38:47.440Z,100522.19
2023-05-10T01:41:22.586Z,100513.47
2023-05-10T01:43:59.405Z,100523.56
2023-05-10T01:46:38.962Z,100527.00
2023-05-10T01:49:15.886Z,100531.31
2023-05-10T01:51:52.534Z,100524.69
2023-05-10T01:54:24.268Z,100527.44
2023-05-10T01:57:04.982Z,100527.44
2023-05-10T01:59:44.472Z,100533.28
2023-05-10T02:02:16.141Z,100533.22
2023-05-10T02:04:50.328Z,100537.38
2023-05-10T02:07:20.624Z,100536.41
2023-05-10T02:09:53.024Z,100529.63
2023-05-10T02:12:24.395Z,100527.94
2023-05-10T02:14:56.699Z,100530.63
2023-05-10T02:17:28.546Z,100535.31
2023-05-10T02:20:03.079Z,100537.94
2023-05-10T02:22:33.512Z,100532.09
2023-05-10T02:25:05.354Z,100532.09
2023-05-10T02:27:35.957Z,100528.50
2023-05-10T02:30:06.471Z,100527.78
2023-05-10T02:32:38.336Z,100535.31
2023-05-10T02:35:13.627Z,100536.38
2023-05-10T02:37:44.244Z,100535.56
2023-05-10T02:40:15.832Z,100538.66
2023-05-10T02:42:47.824Z,100547.66
2023-05-10T02:45:22.207Z,100539.72
2023-05-10T02:47:52.430Z,100543.63
2023-05-10T02:50:26.281Z,100541.31
2023-05-10T02:53:00.321Z,100541.25
2023-05-10T02:55:35.756Z,100545.03
2023-05-10T02:58:07.938Z,100543.44
2023-05-10T03:00:38.024Z,100545.75
2023-05-10T03:03:07.980Z,100546.38
2023-05-10T03:05:40.944Z,100539.63
2023-05-10T03:08:11.348Z,100540.78
2023-05-10T03:11:04.006Z,100547.69
2023-05-10T03:13:40.285Z,100537.56
2023-05-10T03:16:14.109Z,100543.53
2023-05-10T03:18:48.490Z,100544.84
2023-05-10T03:21:23.082Z,100549.63
2023-05-10T03:23:59.481Z,100554.81
2023-05-10T03:26:31.328Z,100555.28
2023-05-10T03:29:02.628Z,100564.78
2023-05-10T03:31:32.713Z,100558.03
2023-05-10T03:34:02.765Z,100561.53
2023-05-10T03:36:35.329Z,100558.63
2023-05-10T03:39:06.215Z,100560.59
2023-05-10T03:41:36.166Z,100562.16
2023-05-10T03:44:06.036Z,100562.16
2023-05-10T03:46:35.924Z,100563.31
2023-05-10T03:49:06.247Z,100571.97
2023-05-10T03:51:38.821Z,100576.28
2023-05-10T03:54:09.113Z,100572.38
2023-05-10T03:56:39.104Z,100566.66
2023-05-10T03:59:10.029Z,100574.16
2023-05-10T04:01:39.989Z,100579.97
2023-05-10T04:04:09.979Z,100572.56
2023-05-10T04:06:42.649Z,100579.44
2023-05-10T04:09:12.710Z,100575.13
2023-05-10T04:11:43.069Z,100573.19
2023-05-10T04:14:12.967Z,100587.16
2023-05-10T04:16:42.952Z,100591.00
2023-05-10T04:19:12.806Z,100585.91
2023-05-10T04:21:45.301Z,100586.50
2023-05-10T04:24:15.161Z,100581.41
2023-05-10T04:26:45.037Z,100583.69
2023-05-10T04:29:15.063Z,100584.84
2023-05-10T04:31:44.977Z,100587.59
2023-05-10T04:34:14.821Z,100579.72
2023-05-10T04:36:47.321Z,100586.69
2023-05-10T04:39:17.704Z,100595.31
2023-05-10T04:41:47.689Z,100585.19
2023-05-10T04:44:17.737Z,100600.38
2023-05-10T04:46:47.621Z,100597.63
2023-05-10T04:49:17.990Z,100595.31
2023-05-10T04:51:50.544Z,100596.91
2023-05-10T04:54:20.455Z,100591.44
2023-05-10T04:56:50.506Z,100593.75
2023-05-10T04:59:20.405Z,100589.84
2023-05-10T05:01:50.378Z,100601.94
2023-05-10T05:04:20.292Z,100604.69
2023-05-10T05:06:53.986Z,100607.41
2023-05-10T05:09:24.045Z,100608.94
2023-05-10T05:11:53.922Z,100601.50
2023-05-10T05:14:26.189Z,100601.75
2023-05-10T05:16:57.076Z,100611.56
2023-05-10T05:19:27.025Z,100620.22
2023-05-10T05:21:59.573Z,100617.13
2023-05-10T05:24:29.449Z,100615.63
2023-05-10T05:26:59.286Z,100611.06
2023-05-10T05:29:29.099Z,100620.84
2023-05-10T05:31:59.039Z,100625.59
2023-05-10T05:34:29.068Z,100629.91
2023-05-10T05:37:01.563Z,100620.13
2023-05-10T05:39:31.620Z,100628.44
2023-05-10T05:42:01.487Z,100638.66
2023-05-10T05:44:31.656Z,100637.97
2023-05-10T05:47:01.541Z,100634.88
2023-05-10T05:49:31.389Z,100638.41
2023-05-10T05:52:06.193Z,100636.84
2023-05-10T05:54:36.371Z,100637.25
2023-05-10T05:57:06.470Z,100642.84
2023-05-10T05:59:36.453Z,100645.66
2023-05-10T06:02:06.322Z,100652.34
2023-05-10T06:04:38.839Z,100654.03
2023-05-10T06:07:11.675Z,100656.41
2023-05-10T06:09:41.564Z,100655.28
2023-05-10T06:12:12.849Z,100652.09
2023-05-10T06:14:42.856Z,100660.31
2023-05-10T06:17:12.717Z,100666.31
2023-05-10T06:19:42.605Z,100668.44
2023-05-10T06:22:15.060Z,100663.41
2023-05-10T06:24:44.950Z,100665.00
2023-05-10T06:27:14.840Z,100664.72
2023-05-10T06:29:44.878Z,100663.31
2023-05-10T06:32:14.828Z,100669.66
2023-05-10T06:34:45.828Z,100668.06
2023-05-10T06:37:18.253Z,100669.31
2023-05-10T06:39:48.143Z,100677.44
2023-05-10T06:42:18.269Z,100684.50
2023-05-10T06:44:48.070Z,100681.44
2023-05-10T06:47:21.280Z,100683.72
2023-05-10T06:49:51.122Z,100681.34
2023-05-10T06:52:24.531Z,100688.94
2023-05-10T06:54:54.501Z,100687.34
2023-05-10T06:57:31.848Z,100687.34
2023-05-10T07:00:06.139Z,100684.69
2023-05-10T07:02:36.279Z,100685.84
2023-05-10T07:05:06.397Z,100692.53
2023-05-10T07:07:38.977Z,100689.72
2023-05-10T07:10:10.481Z,100693.25
2023-05-10T07:12:42.749Z,100692.38
2023-05-10T07:15:13.638Z,100700.56
2023-05-10T07:17:45.660Z,100700.56
2023-05-10T07:20:18.651Z,100704.47
2023-05-10T07:22:51.336Z,100694.66
2023-05-10T07:25:21.357Z,100701.72
2023-05-10T07:27:52.224Z,100703.06
2023-05-10T07:30:22.371Z,100704.81
2023-05-10T07:32:52.429Z,100697.94
2023-05-10T07:35:25.052Z,100697.22
2023-05-10T07:37:57.546Z,100695.63
2023-05-10T07:40:28.156Z,100706.59
2023-05-10T07:42:58.120Z,100694.94
2023-05-10T07:45:31.290Z,100708.28
2023-05-10T07:48:01.716Z,100709.84
2023-05-10T07:50:31.965Z,100704.47
2023-05-10T07:53:04.586Z,100708.50
2023-05-10T07:55:35.483Z,100710.31
2023-05-10T07:58:05.762Z,100712.94
2023-05-10T08:00:37.033Z,100716.13
2023-05-10T08:03:07.136Z,100711.53
2023-05-10T08:05:37.453Z,100721.84
2023-05-10T08:08:11.979Z,100721.16
2023-05-10T08:10:42.053Z,100717.75
2023-05-10T08:13:11.956Z,100726.28
2023-05-10T08:15:42.037Z,100714.78
2023-05-10T08:18:12.050Z,100716.50
2023-05-10T08:20:42.031Z,100723.66
2023-05-10T08:23:16.710Z,100720.28
2023-05-10T08:25:46.603Z,100724.75
2023-05-10T08:28:16.450Z,100725.59
2023-05-10T08:30:46.370Z,100730.53
2023-05-10T08:33:16.540Z,100729.16
2023-05-10T08:35:48.213Z,100739.47
2023-05-10T08:38:21.944Z,100737.91
2023-05-10T08:40:57.684Z,100742.22
2023-05-10T08:43:31.140Z,100745.53
2023-05-10T08:46:05.519Z,100746.31
2023-05-10T08:48:41.403Z,100748.22
2023-05-10T08:51:13.516Z,100738.13
2023-05-10T08:53:46.400Z,100750.88
2023-05-10T08:56:16.894Z,100751.44
2023-05-10T08:58:47.218Z,100753.59
2023-05-10T09:01:21.537Z,100753.69
2023-05-10T09:03:52.486Z,100766.34
2023-05-10T09:06:22.589Z,100772.34
2023-05-10T09:08:56.386Z,100773.06
2023-05-10T09:11:26.799Z,100777.38
2023-05-10T09:13:57.402Z,100771.34
2023-05-10T09:16:28.313Z,100769.28
2023-05-10T09:18:58.265Z,100782.50
2023-05-10T09:21:28.945Z,100780.94
2023-05-10T09:24:06.691Z,100791.88
2023-05-10T09:26:36.821Z,100784.84
2023-05-10T09:29:09.735Z,100784.09
2023-05-10T09:31:52.897Z,100790.38
2023-05-10T09:34:24.438Z,100794.75
2023-05-10T09:36:59.374Z,100798.88
2023-05-10T09:39:41.169Z,100797.28
2023-05-10T09:42:12.826Z,100795.44
2023-05-10T09:44:44.580Z,100803.81
2023-05-10T09:47:23.686Z,100802.19
2023-05-10T09:49:54.278Z,100808.56
2023-05-10T09:52:24.300Z,100812.84
2023-05-10T09:54:59.538Z,100824.78
2023-05-10T09:57:29.881Z,100815.25
2023-05-10T09:59:59.816Z,100816.81
2023-05-10T10:02:33.530Z,100821.59
2023-05-10T10:05:05.413Z,100822.31
2023-05-10T10:07:38.099Z,100825.44
2023-05-10T10:10:14.153Z,100822.63
2023-05-10T10:12:45.785Z,100829.22
2023-05-10T10:15:16.911Z,100830.75
2023-05-10T10:17:47.844Z,100832.19
2023-05-10T10:20:18.690Z,100826.72
2023-05-10T10:22:48.875Z,100834.22
2023-05-10T10:25:24.401Z,100832.56
2023-05-10T10:28:13.224Z,100836.16
2023-05-10T10:30:46.505Z,100833.25
2023-05-10T10:33:40.606Z,100833.91
2023-05-10T10:36:11.734Z,100828.59
2023-05-10T10:39:00.808Z,100838.81
2023-05-10T10:41:45.630Z,100840.28
2023-05-10T10:44:30.644Z,100836.59
2023-05-10T10:47:09.870Z,100835.63
2023-05-10T10:49:47.391Z,100845.91
2023-05-10T10:52:27.992Z,100847.63
2023-05-10T10:55:03.029Z,100844.88
2023-05-10T10:57:38.368Z,100848.03
2023-05-10T11:00:27.719Z,100846.03
2023-05-10T11:03:00.517Z,100853.91
2023-05-10T11:05:44.577Z,100856.03
2023-05-10T11:08:20.199Z,100855.25
2023-05-10T11:10:58.171Z,100854.81
2023-05-10T11:13:35.273Z,100848.22
2023-05-10T11:16:18.550Z,100857.63
2023-05-10T11:19:07.040Z,100858.50
2023-05-10T11:21:37.979Z,100856.88
2023-05-10T11:24:17.987Z,100849.47
2023-05-10T11:26:48.135Z,100858.28
2023-05-10T11:29:21.213Z,100849.59
2023-05-10T11:31:52.472Z,100844.22
2023-05-10T11:34:31.546Z,100859.59
2023-05-10T11:37:02.166Z,100860.88
2023-05-10T11:39:33.239Z,100861.78
2023-05-10T11:42:03.946Z,100865.00
2023-05-10T11:44:37.433Z,100862.88
2023-05-10T11:47:09.156Z,100860.66
2023-05-10T11:49:39.124Z,100865.09
2023-05-10T11:52:10.403Z,100870.16
2023-05-10T11:54:40.436Z,100868.19
2023-05-10T11:57:10.318Z,100868.13
2023-05-10T11:59:43.922Z,100867.63
2023-05-10T12:02:14.556Z,100871.25
2023-05-10T12:04:45.597Z,100868.50
2023-05-10T12:07:15.604Z,100875.47
2023-05-10T12:09:47.409Z,100873.47
2023-05-10T12:12:20.921Z,100884.78
2023-05-10T12:14:55.817Z,100886.31
2023-05-10T12:17:25.718Z,100870.66
2023-05-10T12:19:55.965Z,100882.56
2023-05-10T12:22:25.924Z,100874.69
2023-05-10T12:24:55.938Z,100876.75
2023-05-10T12:27:25.774Z,100880.34
2023-05-10T12:29:58.790Z,100880.47
2023-05-10T12:32:42.029Z,100872.63
2023-05-10T12:35:12.631Z,100871.28
2023-05-10T12:37:43.060Z,100873.78
2023-05-10T12:40:15.335Z,100866.84
2023-05-10T12:42:46.089Z,100873.97
2023-05-10T12:45:18.644Z,100875.72
2023-05-10T12:47:49.383Z,100875.09
2023-05-10T12:50:19.336Z,100874.50
2023-05-10T12:52:49.353Z,100866.06
2023-05-10T12:55:19.306Z,100868.78
2023-05-10T12:57:49.119Z,100877.56
2023-05-10T13:00:22.646Z,100879.25
2023-05-10T13:02:52.588Z,100876.69
2023-05-10T13:05:22.722Z,100877.88
2023-05-10T13:07:52.565Z,100876.00
2023-05-10T13:10:23.770Z,100885.16
2023-05-10T13:12:53.855Z,100885.72
2023-05-10T13:15:26.705Z,100886.97
2023-05-10T13:17:58.985Z,100898.75
2023-05-10T13:20:29.551Z,100892.06
2023-05-10T13:22:59.455Z,100888.47
2023-05-10T13:25:29.308Z,100894.78
2023-05-10T13:27:59.457Z,100894.78
2023-05-10T13:30:32.776Z,100896.38
2023-05-10T13:33:02.811Z,100894.03
2023-05-10T13:35:32.942Z,100889.31
2023-05-10T13:38:03.244Z,100891.69
2023-05-10T13:40:33.184Z,100884.59
2023-05-10T13:43:04.516Z,100883.78
2023-05-10T13:45:37.218Z,100884.59
2023-05-10T13:48:08.039Z,100877.47
2023-05-10T13:50:38.098Z,100874.81
2023-05-10T13:53:08.024Z,100863.44
2023-05-10T13:55:38.006Z,100869.78
2023-05-10T13:58:08.146Z,100866.66
2023-05-10T14:00:40.896Z,100867.06
2023-05-10T14:03:12.633Z,100865.88
2023-05-10T14:05:46.162Z,100859.56
2023-05-10T14:08:16.967Z,100861.50
2023-05-10T14:10:46.868Z,100860.31
2023-05-10T14:13:17.065Z,100855.22
2023-05-10T14:15:49.637Z,100857.97
2023-05-10T14:18:19.528Z,100860.34
2023-05-10T14:20:49.405Z,100859.94
2023-05-10T14:23:20.778Z,100850.03
2023-05-10T14:25:50.875Z,100851.63
2023-05-10T14:28:21.925Z,100849.22
2023-05-10T14:30:54.660Z,100853.16
2023-05-10T14:33:24.788Z,100847.59
2023-05-10T14:35:56.049Z,100855.91
2023-05-10T14:38:26.080Z,100856.19
2023-05-10T14:40:56.032Z,100855.78
2023-05-10T14:43:26.173Z,100852.19
2023-05-10T14:45:58.703Z,100856.16
2023-05-10T14:48:28.637Z,100846.22
2023-05-10T14:50:58.667Z,100847.47
2023-05-10T14:53:28.677Z,100850.75
2023-05-10T14:55:58.627Z,100846.75
2023-05-10T14:58:28.748Z,100845.19
2023-05-10T15:01:01.310Z,100849.94
2023-05-10T15:03:31.864Z,100840.47
2023-05-10T15:06:02.116Z,100848.41
2023-05-10T15:08:32.060Z,100844.84
2023-05-10T15:11:02.162Z,100846.44
2023-05-10T15:13:32.052Z,100846.44
2023-05-10T15:16:04.925Z,100848.44
2023-05-10T15:18:35.152Z,100855.53
2023-05-10T15:21:10.273Z,100857.16
2023-05-10T15:23:40.219Z,100854.78
2023-05-10T15:26:10.163Z,100855.56
2023-05-10T15:28:40.459Z,100858.75
2023-05-10T15:31:13.193Z,100861.13
2023-05-10T15:33:43.106Z,100862.72
2023-05-10T15:36:13.137Z,100864.31
2023-05-10T15:38:43.024Z,100864.31
2023-05-10T15:41:13.002Z,100874.91
2023-05-10T15:43:42.925Z,100885.56
2023-05-10T15:46:15.490Z,100888.28
2023-05-10T15:48:45.404Z,100890.66
2023-05-10T15:51:15.846Z,100905.59
2023-05-10T15:54:00.419Z,100909.81
2023-05-10T15:56:36.978Z,100906.59
2023-05-10T15:59:08.884Z,100919.97
2023-05-10T16:01:41.651Z,100923.41
2023-05-10T16:04:11.686Z,100933.28
2023-05-10T16:06:42.892Z,100933.59
2023-05-10T16:09:13.392Z,100934.03
2023-05-10T16:11:43.331Z,100937.13
2023-05-10T16:14:13.186Z,100928.41
2023-05-10T16:16:46.309Z,100940.88
2023-05-10T16:19:17.914Z,100946.31
2023-05-10T16:21:48.077Z,100947.84
2023-05-10T16:24:18.038Z,100939.09
2023-05-10T16:26:48.411Z,100950.81
2023-05-10T16:29:18.385Z,100949.16
2023-05-10T16:31:50.867Z,100948.75
2023-05-10T16:34:24.421Z,100945.22
2023-05-10T16:36:54.345Z,100942.84
2023-05-10T16:39:24.380Z,100944.75
2023-05-10T16:41:56.628Z,100949.63
2023-05-10T16:44:28.697Z,100953.50
2023-05-10T16:47:01.178Z,100951.53
2023-05-10T16:49:31.153Z,100950.22
2023-05-10T16:52:01.668Z,100955.75
2023-05-10T16:54:31.805Z,100951.81
2023-05-10T16:57:02.346Z,100954.94
2023-05-10T16:59:32.220Z,100957.25
2023-05-10T17:02:04.754Z,100961.84
2023-05-10T17:04:34.710Z,100961.34
2023-05-10T17:07:09.625Z,100956.88
2023-05-10T17:09:39.507Z,100966.66
2023-05-10T17:12:09.414Z,100969.31
2023-05-10T17:14:40.560Z,100966.56
2023-05-10T17:17:13.002Z,100974.00
2023-05-10T17:19:45.076Z,100973.97
2023-05-10T17:22:15.606Z,100969.22
2023-05-10T17:24:46.742Z,100970.72
2023-05-10T17:27:16.777Z,100971.50
2023-05-10T17:29:46.852Z,100968.25
2023-05-10T17:32:19.269Z,100980.34
2023-05-10T17:34:49.166Z,100971.25
2023-05-10T17:37:19.532Z,100979.03
2023-05-10T17:39:49.426Z,100984.47
2023-05-10T17:42:21.939Z,100979.78
2023-05-10T17:44:51.830Z,100984.41
2023-05-10T17:47:24.456Z,100987.53
2023-05-10T17:49:54.619Z,100988.69
2023-05-10T17:52:24.364Z,100985.03
2023-05-10T17:54:54.279Z,100982.56
2023-05-10T17:57:24.874Z,100978.53
2023-05-10T17:59:54.937Z,100982.88
2023-05-10T18:02:27.551Z,100987.97
2023-05-10T18:05:01.871Z,100997.13
2023-05-10T18:07:32.251Z,100992.97
2023-05-10T18:10:05.177Z,100996.59
2023-05-10T18:12:38.137Z,101001.22
2023-05-10T18:15:09.393Z,101007.16
2023-05-10T18:17:48.083Z,101003.47
2023-05-10T18:20:18.114Z,101003.22
2023-05-10T18:22:47.944Z,101002.50
2023-05-10T18:25:20.381Z,101004.88
2023-05-10T18:27:50.575Z,101011.22
2023-05-10T18:30:22.588Z,101018.41
2023-05-10T18:32:55.310Z,101022.19
2023-05-10T18:35:26.813Z,101023.34
2023-05-10T18:37:56.746Z,101021.44
2023-05-10T18:40:26.782Z,101020.31
2023-05-10T18:42:58.478Z,101019.13
2023-05-10T18:45:28.406Z,101022.31
2023-05-10T18:48:04.017Z,101018.03
2023-05-10T18:50:35.179Z,101019.13
2023-05-10T18:53:09.641Z,101038.53
2023-05-10T18:55:46.708Z,101038.00
2023-05-10T18:58:19.093Z,101043.03
2023-05-10T19:00:49.114Z,101045.72
2023-05-10T19:03:21.870Z,101036.19
2023-05-10T19:05:52.199Z,101037.34
2023-05-10T19:08:22.264Z,101042.75
2023-05-10T19:10:56.414Z,101043.84
2023-05-10T19:13:29.184Z,101051.31
2023-05-10T19:16:14.029Z,101050.78
2023-05-10T19:18:51.559Z,101051.84
2023-05-10T19:21:23.111Z,101058.72
2023-05-10T19:23:57.272Z,101060.94
2023-05-10T19:26:30.563Z,101056.16
2023-05-10T19:29:06.010Z,101056.09
2023-05-10T19:31:36.462Z,101057.97
2023-05-10T19:34:10.560Z,101066.75
2023-05-10T19:36:40.558Z,101062.97
2023-05-10T19:39:10.685Z,101062.47
2023-05-10T19:41:51.930Z,101065.47
2023-05-10T19:44:23.038Z,101067.78
2023-05-10T19:46:56.793Z,101059.97
2023-05-10T19:49:30.460Z,101062.34
2023-05-10T19:52:00.588Z,101063.16
2023-05-10T19:54:30.478Z,101061.56
2023-05-10T19:57:00.344Z,101069.38
2023-05-10T19:59:30.212Z,101068.03
2023-05-10T20:02:01.499Z,101076.22
2023-05-10T20:04:41.334Z,101069.03
2023-05-10T20:07:11.587Z,101063.53
2023-05-10T20:09:41.538Z,101063.53
2023-05-10T20:12:11.514Z,101066.66
2023-05-10T20:14:44.572Z,101063.47
2023-05-10T20:17:16.920Z,101064.59
2023-05-10T20:19:50.436Z,101063.81
2023-05-10T20:22:20.455Z,101071.16
2023-05-10T20:24:50.415Z,101060.19
2023-05-10T20:27:21.319Z,101064.88
2023-05-10T20:29:51.115Z,101065.69
2023-05-10T20:32:21.401Z,101073.44
2023-05-10T20:34:53.894Z,101060.88
2023-05-10T20:37:23.949Z,101059.28
2023-05-10T20:39:53.823Z,101063.28
2023-05-10T20:42:24.254Z,101064.78
2023-05-10T20:44:54.173Z,101063.19
2023-05-10T20:47:24.734Z,101067.09
2023-05-10T20:49:57.266Z,101059.22
2023-05-10T20:52:27.187Z,101070.06
2023-05-10T20:54:57.058Z,101065.28
2023-05-10T20:57:27.489Z,101070.00
2023-05-10T20:59:57.814Z,101067.13
2023-05-10T21:02:30.950Z,101063.53
2023-05-10T21:05:03.879Z,101065.38
2023-05-10T21:07:33.983Z,101063.34
2023-05-10T21:10:03.951Z,101063.16
2023-05-10T21:12:33.971Z,101070.50
2023-05-10T21:15:04.006Z,101065.25
2023-05-10T21:17:33.958Z,101068.28
2023-05-10T21:20:06.703Z,101070.81
2023-05-10T21:22:37.048Z,101071.06
2023-05-10T21:25:07.540Z,101064.69
2023-05-10T21:27:37.627Z,101063.34
2023-05-10T21:30:08.936Z,101076.16
2023-05-10T21:32:39.257Z,101070.56
2023-05-10T21:35:12.482Z,101072.78
2023-05-10T21:37:42.938Z,101074.16
2023-05-10T21:40:14.650Z,101077.16
2023-05-10T21:42:49.611Z,101069.16
2023-05-10T21:45:19.711Z,101078.53
2023-05-10T21:47:49.896Z,101076.94
2023-05-10T21:50:23.114Z,101079.25
2023-05-10T21:52:55.815Z,101081.50
2023-05-10T21:55:26.145Z,101082.53
2023-05-10T21:57:58.609Z,101079.00
2023-05-10T22:00:28.615Z,101074.91
2023-05-10T22:03:01.333Z,101081.06
2023-05-10T22:05:34.007Z,101077.19
2023-05-10T22:08:04.036Z,101085.88
2023-05-10T22:10:35.333Z,101084.28
2023-05-10T22:13:08.299Z,101081.06
2023-05-10T22:15:38.342Z,101075.59
2023-05-10T22:18:16.740Z,101081.88
2023-05-10T22:20:50.397Z,101075.59
2023-05-10T22:23:26.339Z,101081.06
2023-05-10T22:25:56.158Z,101077.78
2023-05-10T22:28:26.234Z,101081.56
2023-05-10T22:30:56.368Z,101083.97
2023-05-10T22:33:26.507Z,101077.25
2023-05-10T22:36:00.402Z,101085.22
2023-05-10T22:38:30.376Z,101084.44
2023-05-10T22:41:05.916Z,101086.94
2023-05-10T22:43:36.877Z,101089.47
2023-05-10T22:46:07.210Z,101085.66
2023-05-10T22:48:38.629Z,101086.59
2023-05-10T22:51:11.211Z,101087.50
2023-05-10T22:53:41.296Z,101091.59
2023-05-10T22:56:15.817Z,101089.31
2023-05-10T22:58:48.736Z,101089.41
2023-05-10T23:01:19.402Z,101094.81
2023-05-10T23:03:49.437Z,101094.94
2023-05-10T23:06:21.958Z,101092.78
2023-05-10T23:08:54.472Z,101095.16
2023-05-10T23:11:27.140Z,101092.88
2023-05-10T23:13:59.659Z,101092.19
2023-05-10T23:16:29.822Z,101093.66
2023-05-10T23:19:03.047Z,101099.50
2023-05-10T23:21:39.077Z,101099.13
2023-05-10T23:24:16.824Z,101099.13
2023-05-10T23:26:47.557Z,101093.78
2023-05-10T23:29:17.507Z,101094.31
2023-05-10T23:31:48.988Z,101095.25
2023-05-10T23:34:26.163Z,101087.03
2023-05-10T23:37:04.004Z,101091.59
2023-05-10T23:39:35.022Z,101093.09
2023-05-10T23:42:06.249Z,101093.09
2023-05-10T23:44:38.920Z,101092.72
2023-05-10T23:47:19.044Z,101090.69
2023-05-10T23:49:48.988Z,101090.56
2023-05-10T23:52:23.019Z,101089.78
2023-05-10T23:54:53.912Z,101084.66
2023-05-10T23:57:28.080Z,101085.00
